Time;durP1;ratioP1;P1;durP2;ratioP2;P2;SDS_P1;SDS_P2;PMS_P1;PMS_P2;Temp;Humidity;BMP_temperature;BMP_pressure;BME280_temperature;BME280_humidity;BME280_pressure;Samples;Min_cycle;Max_cycle;Signal;HPM_P1;HPM_P2
2022/03/08 00:00:24;;;;;;;10.35;5.72;;;0.60;99.90;;;;;;5015158;28;20069;-79
2022/03/08 00:02:50;;;;;;;14.25;5.20;;;0.50;99.90;;;;;;4981737;28;20045;-79
2022/03/08 00:05:16;;;;;;;10.45;4.75;;;0.50;99.90;;;;;;4997750;28;20057;-80
2022/03/08 00:07:42;;;;;;;11.73;5.20;;;0.50;99.90;;;;;;4996967;28;20038;-77
2022/03/08 00:10:09;;;;;;;9.25;4.95;;;0.50;99.90;;;;;;5011457;28;20104;-78
2022/03/08 00:12:35;;;;;;;10.45;5.70;;;0.50;99.90;;;;;;4995356;28;20100;-78
2022/03/08 00:15:02;;;;;;;10.27;5.40;;;0.50;99.90;;;;;;4995191;28;20497;-78
2022/03/08 00:17:28;;;;;;;13.35;5.65;;;0.50;99.90;;;;;;4995335;28;20053;-78
2022/03/08 00:19:53;;;;;;;12.45;5.45;;;0.50;99.90;;;;;;4994936;28;20567;-78
2022/03/08 00:22:19;;;;;;;12.35;4.38;;;0.40;99.90;;;;;;4994913;28;20046;-78
2022/03/08 00:24:44;;;;;;;10.30;4.20;;;0.40;99.90;;;;;;4995842;28;20041;-80
2022/03/08 00:27:10;;;;;;;11.63;4.72;;;0.30;99.90;;;;;;5016407;28;20038;-80
2022/03/08 00:29:35;;;;;;;12.45;5.53;;;0.30;99.90;;;;;;5000083;28;20049;-80
2022/03/08 00:32:01;;;;;;;9.13;4.82;;;0.30;99.90;;;;;;4999694;28;20050;-81
2022/03/08 00:34:26;;;;;;;11.80;5.63;;;0.30;99.90;;;;;;5012897;28;20037;-78
2022/03/08 00:36:52;;;;;;;11.80;5.43;;;0.30;99.90;;;;;;4994879;28;20460;-78
2022/03/08 00:39:18;;;;;;;10.02;5.25;;;0.30;99.90;;;;;;4994772;28;20049;-78
2022/03/08 00:41:44;;;;;;;14.00;5.57;;;0.30;99.90;;;;;;4994275;28;20076;-78
2022/03/08 00:44:10;;;;;;;12.73;5.47;;;0.30;99.90;;;;;;4994942;28;20063;-78
2022/03/08 00:46:36;;;;;;;19.73;6.68;;;0.30;99.90;;;;;;5011288;28;20405;-78
2022/03/08 00:49:03;;;;;;;8.80;4.95;;;0.30;99.90;;;;;;5010997;28;20046;-78
2022/03/08 00:51:29;;;;;;;11.85;5.57;;;0.30;99.90;;;;;;5010439;28;20076;-77
2022/03/08 00:53:54;;;;;;;15.00;5.90;;;0.30;99.90;;;;;;4994311;28;20469;-77
2022/03/08 00:56:20;;;;;;;11.60;5.68;;;0.30;99.90;;;;;;5010709;28;20092;-78
2022/03/08 00:58:45;;;;;;;11.65;4.85;;;0.30;99.90;;;;;;5009791;28;20056;-77
2022/03/08 01:01:11;;;;;;;11.65;5.88;;;0.30;99.90;;;;;;4994055;28;20050;-77
2022/03/08 01:03:37;;;;;;;16.50;6.43;;;0.30;99.90;;;;;;4994013;28;20096;-78
2022/03/08 01:06:02;;;;;;;12.02;5.47;;;0.30;99.90;;;;;;5010459;28;20139;-78
2022/03/08 01:08:28;;;;;;;15.77;5.78;;;0.20;99.90;;;;;;4994063;28;20491;-77
2022/03/08 01:10:54;;;;;;;12.88;6.03;;;0.20;99.90;;;;;;5011271;28;20382;-78
2022/03/08 01:13:20;;;;;;;14.85;6.07;;;0.20;99.90;;;;;;5011608;28;20081;-77
2022/03/08 01:15:45;;;;;;;10.73;5.47;;;0.20;99.90;;;;;;4994034;28;20052;-78
2022/03/08 01:18:11;;;;;;;11.82;5.63;;;0.20;99.90;;;;;;5010160;28;20080;-78
2022/03/08 01:20:37;;;;;;;15.82;6.70;;;0.20;99.90;;;;;;4993794;28;20049;-77
2022/03/08 01:23:03;;;;;;;13.32;6.10;;;0.20;99.90;;;;;;4993907;28;20124;-78
2022/03/08 01:25:30;;;;;;;14.70;6.07;;;0.10;99.90;;;;;;5009769;28;20113;-78
2022/03/08 01:27:56;;;;;;;16.48;6.82;;;0.10;99.90;;;;;;5011409;28;20125;-77
2022/03/08 01:30:23;;;;;;;16.13;7.20;;;0.10;99.90;;;;;;4993446;28;20552;-77
2022/03/08 01:32:49;;;;;;;17.63;7.07;;;0.00;99.90;;;;;;4993884;28;20416;-77
2022/03/08 01:35:15;;;;;;;17.63;6.97;;;0.00;99.90;;;;;;5010326;28;20046;-77
2022/03/08 01:37:41;;;;;;;22.25;7.10;;;-0.10;99.90;;;;;;4993646;28;20045;-78
2022/03/08 01:40:09;;;;;;;18.30;8.27;;;-0.20;99.90;;;;;;4993413;28;20374;-78
2022/03/08 01:42:35;;;;;;;16.13;6.78;;;-0.20;99.90;;;;;;4993450;28;20037;-78
2022/03/08 01:45:01;;;;;;;17.88;7.95;;;-0.30;99.90;;;;;;5009910;28;20446;-78
2022/03/08 01:47:27;;;;;;;15.88;6.88;;;-0.20;99.90;;;;;;5010167;28;20057;-78
2022/03/08 01:49:54;;;;;;;16.50;7.55;;;-0.30;99.90;;;;;;4993486;28;20042;-78
2022/03/08 01:52:22;;;;;;;16.17;7.45;;;-0.30;99.90;;;;;;4993717;28;20065;-78
2022/03/08 01:54:48;;;;;;;14.70;6.47;;;-0.30;99.90;;;;;;5011184;28;20042;-78
2022/03/08 01:57:14;;;;;;;13.35;6.07;;;-0.30;99.90;;;;;;4993518;28;20121;-78
2022/03/08 01:59:40;;;;;;;15.55;7.65;;;-0.30;99.90;;;;;;5009975;28;20068;-78
2022/03/08 02:02:07;;;;;;;16.63;7.45;;;-0.30;99.90;;;;;;4993335;28;20501;-78
2022/03/08 02:04:32;;;;;;;16.92;6.60;;;-0.30;99.90;;;;;;4993336;28;20453;-78
2022/03/08 02:07:00;;;;;;;14.50;6.40;;;-0.40;99.90;;;;;;4993292;28;20096;-78
2022/03/08 02:09:26;;;;;;;15.13;6.53;;;-0.40;99.90;;;;;;4994282;28;20034;-78
2022/03/08 02:11:51;;;;;;;14.13;6.13;;;-0.40;99.90;;;;;;5013807;28;20366;-78
2022/03/08 02:14:17;;;;;;;14.50;5.97;;;-0.40;99.90;;;;;;4997416;28;20516;-78
2022/03/08 02:16:44;;;;;;;15.32;6.72;;;-0.40;99.90;;;;;;4997143;28;20390;-78
2022/03/08 02:19:14;;;;;;;10.40;5.40;;;-0.40;99.90;;;;;;4997155;28;20045;-78
2022/03/08 02:21:40;;;;;;;18.10;7.47;;;-0.40;99.90;;;;;;4996644;28;20049;-78
2022/03/08 02:24:06;;;;;;;16.65;7.03;;;-0.40;99.90;;;;;;4997018;28;20061;-78
2022/03/08 02:26:32;;;;;;;13.70;7.22;;;-0.40;99.90;;;;;;4997053;28;20029;-78
2022/03/08 02:29:03;;;;;;;20.15;7.47;;;-0.40;99.90;;;;;;5013530;28;20041;-78
2022/03/08 02:31:29;;;;;;;19.88;8.13;;;-0.50;99.90;;;;;;4996625;28;20092;-78
2022/03/08 02:33:55;;;;;;;15.35;6.40;;;-0.40;99.90;;;;;;4980658;28;20078;-78
2022/03/08 02:36:21;;;;;;;15.55;7.30;;;-0.40;99.90;;;;;;5013372;28;20538;-77
2022/03/08 02:38:46;;;;;;;15.57;7.00;;;-0.40;99.90;;;;;;5014363;28;20061;-78
2022/03/08 02:41:12;;;;;;;14.23;6.53;;;-0.40;99.90;;;;;;5012746;28;20058;-78
2022/03/08 02:43:37;;;;;;;14.75;7.78;;;-0.40;99.90;;;;;;5014258;28;20041;-77
2022/03/08 02:46:03;;;;;;;15.88;6.43;;;-0.40;99.90;;;;;;4996723;28;20121;-78
2022/03/08 02:48:29;;;;;;;15.45;7.68;;;-0.50;99.90;;;;;;4996635;28;20076;-78
2022/03/08 02:50:56;;;;;;;18.50;6.93;;;-0.50;99.90;;;;;;4996189;28;20042;-78
2022/03/08 02:53:22;;;;;;;14.52;7.50;;;-0.50;99.90;;;;;;4980199;28;20046;-78
2022/03/08 02:55:47;;;;;;;19.67;7.50;;;-0.50;99.90;;;;;;5012736;28;20046;-78
2022/03/08 02:58:13;;;;;;;18.75;7.65;;;-0.50;99.90;;;;;;5012158;28;20042;-77
2022/03/08 03:00:39;;;;;;;13.60;6.80;;;-0.50;99.90;;;;;;4995645;28;20037;-78
2022/03/08 03:03:06;;;;;;;17.38;7.10;;;-0.60;99.90;;;;;;4995837;28;20034;-78
2022/03/08 03:05:33;;;;;;;17.90;8.48;;;-0.50;99.90;;;;;;4995687;28;20045;-78
2022/03/08 03:07:59;;;;;;;16.52;7.03;;;-0.50;99.90;;;;;;4995948;28;20037;-78
2022/03/08 03:10:25;;;;;;;15.07;7.10;;;-0.40;99.90;;;;;;4995610;28;20038;-78
2022/03/08 03:12:52;;;;;;;15.93;8.15;;;-0.40;99.90;;;;;;4995850;28;20049;-78
2022/03/08 03:15:19;;;;;;;18.73;8.13;;;-0.40;99.90;;;;;;4996220;28;20127;-78
2022/03/08 03:17:45;;;;;;;14.65;7.43;;;-0.50;99.90;;;;;;4995640;28;20092;-78
2022/03/08 03:20:13;;;;;;;19.15;8.27;;;-0.50;99.90;;;;;;4995334;28;20473;-78
2022/03/08 03:22:39;;;;;;;20.38;8.25;;;-0.50;99.90;;;;;;4994640;28;20050;-78
2022/03/08 03:25:06;;;;;;;17.80;8.27;;;-0.50;99.90;;;;;;4995520;28;20117;-78
2022/03/08 03:27:32;;;;;;;15.02;7.32;;;-0.50;99.90;;;;;;4995751;28;20089;-78
2022/03/08 03:29:58;;;;;;;19.38;8.18;;;-0.50;99.90;;;;;;4995354;28;20088;-78
2022/03/08 03:32:23;;;;;;;20.23;9.57;;;-0.50;99.90;;;;;;4995693;28;20468;-77
2022/03/08 03:34:50;;;;;;;18.95;8.35;;;-0.50;99.90;;;;;;4995320;28;20061;-78
2022/03/08 03:37:16;;;;;;;22.63;9.63;;;-0.50;99.90;;;;;;4995321;28;20057;-78
2022/03/08 03:39:41;;;;;;;17.13;7.80;;;-0.60;99.90;;;;;;4994854;28;20630;-77
2022/03/08 03:42:07;;;;;;;19.35;8.95;;;-0.60;99.90;;;;;;4995287;28;20044;-77
2022/03/08 03:44:33;;;;;;;17.35;8.45;;;-0.60;99.90;;;;;;4995178;28;20493;-77
2022/03/08 03:46:59;;;;;;;17.58;7.70;;;-0.60;99.90;;;;;;4995620;28;20073;-77
2022/03/08 03:49:24;;;;;;;22.75;9.55;;;-0.60;99.90;;;;;;5013015;28;20042;-77
2022/03/08 03:51:51;;;;;;;17.50;8.25;;;-0.60;99.90;;;;;;4996786;28;20041;-77
2022/03/08 03:54:20;;;;;;;21.02;9.43;;;-0.70;99.90;;;;;;4995987;28;20046;-77
2022/03/08 03:56:46;;;;;;;20.63;8.85;;;-0.70;99.90;;;;;;4994898;28;20544;-78
2022/03/08 03:59:12;;;;;;;19.05;8.20;;;-0.70;99.90;;;;;;4994701;28;20052;-78
2022/03/08 04:01:38;;;;;;;18.20;8.45;;;-0.70;99.90;;;;;;5010832;28;20448;-78
2022/03/08 04:04:03;;;;;;;21.88;9.50;;;-0.70;99.90;;;;;;5011663;28;20540;-78
2022/03/08 04:06:29;;;;;;;23.33;9.38;;;-0.80;99.90;;;;;;4995757;28;20374;-78
2022/03/08 04:08:55;;;;;;;23.90;9.23;;;-0.80;99.90;;;;;;4995694;28;20041;-78
2022/03/08 04:11:20;;;;;;;16.45;7.75;;;-0.80;99.90;;;;;;4994669;28;20168;-78
2022/03/08 04:13:46;;;;;;;22.48;10.27;;;-0.80;99.90;;;;;;5010769;28;20111;-78
2022/03/08 04:16:11;;;;;;;21.63;9.73;;;-0.80;99.90;;;;;;4994750;28;20128;-78
2022/03/08 04:18:37;;;;;;;20.58;8.35;;;-0.90;99.90;;;;;;4994602;28;20500;-78
2022/03/08 04:21:03;;;;;;;21.80;9.30;;;-0.80;99.90;;;;;;4994514;28;20049;-78
2022/03/08 04:23:29;;;;;;;20.17;8.15;;;-0.80;99.90;;;;;;4994683;28;20042;-78
2022/03/08 04:25:55;;;;;;;19.00;8.77;;;-0.90;99.90;;;;;;5011394;28;20160;-78
2022/03/08 04:28:20;;;;;;;21.90;10.02;;;-0.90;99.90;;;;;;4994641;28;20132;-78
2022/03/08 04:30:46;;;;;;;21.17;9.35;;;-0.90;99.90;;;;;;4994132;28;20061;-78
2022/03/08 04:33:11;;;;;;;18.42;8.90;;;-0.90;99.90;;;;;;5013102;28;20123;-81
2022/03/08 04:35:37;;;;;;;23.48;9.93;;;-1.00;99.90;;;;;;4999667;28;20041;-80
2022/03/08 04:38:03;;;;;;;19.92;8.35;;;-1.00;99.90;;;;;;5000358;28;20030;-80
2022/03/08 04:40:29;;;;;;;18.83;8.98;;;-0.90;99.90;;;;;;5016541;28;20038;-80
2022/03/08 04:42:54;;;;;;;22.13;9.63;;;-0.90;99.90;;;;;;5000019;28;20396;-80
2022/03/08 04:45:20;;;;;;;27.58;9.65;;;-1.00;99.90;;;;;;5017169;28;20076;-80
2022/03/08 04:47:46;;;;;;;27.15;9.65;;;-1.00;99.90;;;;;;5001110;28;20030;-80
2022/03/08 04:50:14;;;;;;;30.10;11.20;;;-1.00;99.90;;;;;;4999910;28;20034;-80
2022/03/08 04:52:41;;;;;;;20.08;9.73;;;-1.00;99.90;;;;;;5000150;28;20128;-80
2022/03/08 04:55:07;;;;;;;25.88;9.73;;;-1.00;99.90;;;;;;5000334;28;20058;-80
2022/03/08 04:57:33;;;;;;;22.63;10.07;;;-1.00;99.90;;;;;;5001394;28;20060;-80
2022/03/08 04:59:59;;;;;;;22.55;10.48;;;-0.90;99.90;;;;;;5018671;28;20053;-80
2022/03/08 05:02:24;;;;;;;22.45;9.50;;;-0.90;99.90;;;;;;5000662;28;20381;-80
2022/03/08 05:04:50;;;;;;;22.13;10.32;;;-0.90;99.90;;;;;;5017388;28;20042;-80
2022/03/08 05:07:16;;;;;;;20.95;10.00;;;-0.90;99.90;;;;;;4995583;28;20029;-77
2022/03/08 05:09:41;;;;;;;25.10;10.38;;;-1.00;99.90;;;;;;5010916;28;20038;-77
2022/03/08 05:12:10;;;;;;;26.30;10.15;;;-1.00;99.90;;;;;;4993510;28;20078;-77
2022/03/08 05:14:36;;;;;;;23.02;10.13;;;-1.00;99.90;;;;;;4993648;28;20095;-77
2022/03/08 05:17:02;;;;;;;24.50;10.45;;;-1.00;99.90;;;;;;4993768;28;20045;-77
2022/03/08 05:19:27;;;;;;;23.45;9.48;;;-1.00;99.90;;;;;;4993745;28;20054;-77
2022/03/08 05:21:53;;;;;;;17.95;9.50;;;-1.00;99.90;;;;;;5009687;28;20052;-77
2022/03/08 05:24:18;;;;;;;23.65;10.65;;;-1.10;99.90;;;;;;5009710;28;20069;-77
2022/03/08 05:26:44;;;;;;;19.50;9.43;;;-1.10;99.90;;;;;;4977267;28;20046;-77
2022/03/08 05:29:09;;;;;;;24.00;11.13;;;-1.10;99.90;;;;;;4993413;28;20189;-77
2022/03/08 05:31:36;;;;;;;22.88;9.90;;;-1.10;99.90;;;;;;4993205;28;20050;-77
2022/03/08 05:34:01;;;;;;;23.33;8.93;;;-1.10;99.90;;;;;;4993248;28;20161;-77
2022/03/08 05:36:27;;;;;;;20.90;9.07;;;-1.10;99.90;;;;;;4993479;28;20124;-77
2022/03/08 05:38:53;;;;;;;26.67;10.32;;;-1.10;99.90;;;;;;5009826;28;20105;-77
2022/03/08 05:41:19;;;;;;;25.88;11.50;;;-1.10;99.90;;;;;;4992962;28;20057;-77
2022/03/08 05:43:45;;;;;;;46.10;18.25;;;-1.10;99.90;;;;;;4995309;28;20120;-80
2022/03/08 05:46:11;;;;;;;40.28;16.45;;;-1.20;99.90;;;;;;4996752;28;20124;-79
2022/03/08 05:48:37;;;;;;;39.13;17.00;;;-1.10;99.90;;;;;;4994191;28;20069;-79
2022/03/08 05:51:03;;;;;;;24.95;11.85;;;-1.20;99.90;;;;;;4993740;28;20042;-78
2022/03/08 05:53:29;;;;;;;21.73;10.10;;;-1.20;99.90;;;;;;4994032;28;20133;-79
2022/03/08 05:55:54;;;;;;;20.88;9.20;;;-1.20;99.90;;;;;;4995040;28;20073;-79
2022/03/08 05:58:20;;;;;;;25.38;10.65;;;-1.20;99.90;;;;;;5010665;28;20081;-79
2022/03/08 06:00:45;;;;;;;23.37;11.00;;;-1.20;99.90;;;;;;4993870;28;20046;-79
2022/03/08 06:11:41;;;;;;;26.92;11.68;;;-1.20;99.90;;;;;;1255777;23;20054;-79
2022/03/08 06:15:25;;;;;;;;;;;;;;;;;;;;;
2022/03/08 06:17:54;;;;;;;20.48;9.23;;;-1.10;99.90;;;;;;4945238;28;20493;-78
2022/03/08 06:24:49;;;;;;;20.33;10.13;;;-1.10;99.90;;;;;;4931599;29;20051;-78
2022/03/08 06:27:38;;;;;;;34.80;17.13;;;-1.00;99.90;;;;;;4916032;29;20060;-79
2022/03/08 06:44:51;;;;;;;20.67;10.13;;;-0.80;99.90;;;;;;5028795;23;20072;-80
2022/03/08 06:48:11;;;;;;;18.13;8.98;;;-0.70;99.90;;;;;;5014244;28;20295;-80
2022/03/08 06:50:37;;;;;;;23.50;10.88;;;-0.60;99.90;;;;;;4966830;28;20068;-81
2022/03/08 06:53:02;;;;;;;19.02;9.77;;;-0.50;99.90;;;;;;5019520;28;20129;-82
2022/03/08 06:55:28;;;;;;;19.17;9.13;;;-0.40;99.90;;;;;;5003168;28;20074;-81
2022/03/08 06:57:53;;;;;;;14.88;8.23;;;-0.30;99.90;;;;;;5003321;28;20049;-81
2022/03/08 07:00:20;;;;;;;25.33;9.68;;;-0.20;99.90;;;;;;5004744;28;20049;-83
2022/03/08 07:02:45;;;;;;;23.67;10.45;;;-0.10;99.90;;;;;;5020108;28;20057;-82
2022/03/08 07:05:11;;;;;;;19.30;9.02;;;0.00;99.90;;;;;;5005243;28;20034;-82
2022/03/08 07:07:38;;;;;;;24.35;12.32;;;0.10;99.90;;;;;;5004537;28;20080;-81
2022/03/08 07:10:07;;;;;;;23.02;9.48;;;0.10;99.90;;;;;;5003930;28;20068;-82
2022/03/08 07:12:33;;;;;;;16.92;8.65;;;0.20;99.90;;;;;;4988074;28;20408;-81
2022/03/08 07:14:58;;;;;;;20.33;10.27;;;0.20;99.90;;;;;;5020393;28;20045;-81
2022/03/08 07:17:24;;;;;;;23.55;9.18;;;0.40;99.90;;;;;;5003218;28;20052;-82
2022/03/08 07:19:50;;;;;;;17.30;8.55;;;0.50;99.90;;;;;;5019011;28;20053;-82
2022/03/08 07:33:15;;;;;;;16.73;8.32;;;1.30;99.90;;;;;;4915151;29;20078;-79
2022/03/08 07:36:27;;;;;;;;;;;;;;;;;;;;;
2022/03/08 07:39:21;;;;;;;16.38;8.73;;;2.60;99.90;;;;;;4952405;28;20051;-79
2022/03/08 07:41:47;;;;;;;19.85;8.70;;;3.20;99.90;;;;;;4936850;29;20142;-79
2022/03/08 07:44:12;;;;;;;16.45;9.48;;;3.60;99.90;;;;;;4936643;29;20107;-79
2022/03/08 07:47:02;;;;;;;16.15;8.80;;;4.10;99.90;;;;;;4936694;29;20047;-79
2022/03/08 07:49:30;;;;;;;14.68;8.57;;;4.60;99.90;;;;;;4979104;28;20147;-79
2022/03/08 07:52:18;;;;;;;16.40;8.82;;;5.00;99.90;;;;;;4979585;28;20042;-79
2022/03/08 07:54:44;;;;;;;14.88;8.13;;;5.00;99.90;;;;;;4995474;28;20042;-79
2022/03/08 07:57:13;;;;;;;15.30;8.68;;;5.00;99.90;;;;;;4995698;28;20046;-79
2022/03/08 07:59:44;;;;;;;16.35;8.88;;;5.20;99.90;;;;;;5011627;28;20041;-79
2022/03/08 08:02:10;;;;;;;15.05;8.63;;;5.30;99.90;;;;;;4995233;28;20045;-79
2022/03/08 08:04:36;;;;;;;16.23;8.05;;;5.20;99.90;;;;;;4995176;28;20050;-79
2022/03/08 08:07:02;;;;;;;15.13;8.82;;;5.10;99.90;;;;;;4994740;28;20040;-79
2022/03/08 08:09:27;;;;;;;14.88;8.35;;;5.10;99.90;;;;;;4978880;28;20466;-79
2022/03/08 08:11:53;;;;;;;15.60;8.98;;;5.00;99.90;;;;;;5011635;28;20084;-79
2022/03/08 08:14:19;;;;;;;18.67;8.25;;;4.90;99.90;;;;;;5012205;28;20050;-80
2022/03/08 08:16:45;;;;;;;14.70;8.35;;;5.00;99.90;;;;;;4996916;28;20416;-80
2022/03/08 08:19:11;;;;;;;15.85;7.50;;;5.00;99.90;;;;;;5013832;28;20038;-80
2022/03/08 08:21:37;;;;;;;15.40;8.80;;;5.10;99.90;;;;;;4979850;28;20107;-81
2022/03/08 08:24:03;;;;;;;14.23;7.88;;;5.10;99.90;;;;;;4996091;28;20129;-80
2022/03/08 08:26:28;;;;;;;14.82;7.90;;;5.10;99.90;;;;;;4996603;28;20048;-80
2022/03/08 08:28:54;;;;;;;15.35;8.55;;;5.10;99.90;;;;;;5013389;28;20042;-81
2022/03/08 08:31:20;;;;;;;18.48;8.07;;;5.10;99.90;;;;;;4996374;28;20536;-81
2022/03/08 08:33:45;;;;;;;16.30;8.85;;;5.10;99.90;;;;;;4980115;28;20037;-79
2022/03/08 08:36:11;;;;;;;13.95;7.63;;;5.20;99.90;;;;;;5011093;28;20042;-79
2022/03/08 08:38:36;;;;;;;13.15;8.15;;;5.30;99.90;;;;;;5010671;28;20095;-79
2022/03/08 08:41:02;;;;;;;15.50;8.30;;;5.50;99.90;;;;;;4993852;28;20466;-79
2022/03/08 08:43:27;;;;;;;12.05;7.55;;;5.60;99.90;;;;;;5010432;28;20100;-79
2022/03/08 08:45:53;;;;;;;12.95;7.13;;;6.00;99.90;;;;;;5010631;28;20049;-79
2022/03/08 08:48:21;;;;;;;13.00;6.47;;;6.40;99.90;;;;;;5010898;28;20092;-79
2022/03/08 08:50:47;;;;;;;10.35;6.60;;;6.70;99.90;;;;;;4993926;28;20042;-79
2022/03/08 08:53:12;;;;;;;11.40;5.95;;;6.90;99.90;;;;;;4994393;28;20096;-78
2022/03/08 08:55:38;;;;;;;11.15;7.22;;;6.90;99.90;;;;;;5011382;28;20053;-81
2022/03/08 08:58:07;;;;;;;10.52;6.10;;;6.80;99.90;;;;;;5012791;28;20111;-80
2022/03/08 09:00:34;;;;;;;10.52;6.18;;;6.90;99.90;;;;;;5012685;28;20081;-80
2022/03/08 09:02:59;;;;;;;12.07;6.80;;;7.10;99.90;;;;;;4998287;28;20050;-80
2022/03/08 09:05:25;;;;;;;10.07;6.07;;;7.20;99.90;;;;;;4996368;28;20113;-80
2022/03/08 09:07:50;;;;;;;9.70;5.82;;;7.20;99.90;;;;;;4996387;28;20103;-80
2022/03/08 09:10:19;;;;;;;9.38;6.32;;;7.30;99.90;;;;;;4995771;28;20053;-80
2022/03/08 09:12:49;;;;;;;10.73;6.45;;;7.20;99.90;;;;;;5012258;28;20192;-80
2022/03/08 09:15:15;;;;;;;14.70;6.38;;;7.20;99.90;;;;;;5011919;28;20084;-80
2022/03/08 09:17:41;;;;;;;13.15;6.78;;;7.20;99.90;;;;;;4995683;28;20050;-80
2022/03/08 09:20:07;;;;;;;10.38;5.85;;;7.20;99.90;;;;;;4993562;28;20045;-80
2022/03/08 09:22:33;;;;;;;8.30;5.30;;;7.30;99.90;;;;;;5011208;28;20611;-80
2022/03/08 09:24:58;;;;;;;9.45;5.80;;;7.40;99.90;;;;;;5011411;28;20091;-80
2022/03/08 09:27:24;;;;;;;8.57;5.55;;;7.60;99.90;;;;;;4995219;28;20029;-80
2022/03/08 09:29:50;;;;;;;11.93;5.78;;;7.70;99.90;;;;;;4995691;28;20125;-82
2022/03/08 09:32:16;;;;;;;10.63;5.25;;;7.80;99.90;;;;;;4978152;28;20049;-80
2022/03/08 09:34:41;;;;;;;11.27;6.13;;;7.90;99.90;;;;;;4995183;28;20104;-80
2022/03/08 09:37:08;;;;;;;9.77;5.78;;;7.90;99.90;;;;;;4995812;28;20057;-80
2022/03/08 09:39:34;;;;;;;10.82;5.82;;;8.00;99.90;;;;;;4994271;28;20436;-80
2022/03/08 09:42:01;;;;;;;8.18;5.35;;;8.40;99.90;;;;;;4995084;28;20089;-80
2022/03/08 09:44:28;;;;;;;10.23;6.07;;;8.70;99.90;;;;;;4994134;28;20120;-79
2022/03/08 09:46:53;;;;;;;8.60;5.53;;;8.90;99.90;;;;;;4994403;28;20044;-80
2022/03/08 09:49:19;;;;;;;11.77;5.50;;;9.10;99.90;;;;;;5012570;28;20404;-80
2022/03/08 09:51:45;;;;;;;11.20;5.53;;;9.30;99.90;;;;;;4994322;28;20045;-81
2022/03/08 09:54:11;;;;;;;7.32;4.57;;;9.60;99.90;;;;;;5010559;28;20056;-80
2022/03/08 09:56:37;;;;;;;8.65;5.05;;;10.00;99.90;;;;;;4994945;28;20042;-80
2022/03/08 09:59:03;;;;;;;10.30;5.60;;;10.30;99.90;;;;;;4994229;28;20037;-79
2022/03/08 10:01:29;;;;;;;8.65;5.28;;;10.60;99.90;;;;;;4994274;28;20046;-80
2022/03/08 10:03:54;;;;;;;11.48;5.45;;;10.80;98.70;;;;;;4994570;28;20118;-80
2022/03/08 10:06:20;;;;;;;8.63;5.30;;;11.10;94.20;;;;;;4999370;28;20038;-80
2022/03/08 10:08:46;;;;;;;8.57;5.20;;;11.30;97.20;;;;;;5015767;28;20493;-80
2022/03/08 10:11:14;;;;;;;8.52;5.75;;;11.40;95.20;;;;;;5000441;28;20432;-80
2022/03/08 10:13:50;;;;;;;7.40;5.10;;;11.40;82.90;;;;;;5016651;28;20117;-81
2022/03/08 10:16:29;;;;;;;9.95;5.20;;;11.40;59.50;;;;;;5000320;28;20081;-81
2022/03/08 10:18:58;;;;;;;5.88;4.90;;;11.50;62.00;;;;;;5002496;28;20048;-80
2022/03/08 10:21:55;;;;;;;6.80;4.72;;;11.20;63.70;;;;;;5000158;28;20046;-80
2022/03/08 10:24:26;;;;;;;7.45;4.75;;;10.80;60.80;;;;;;5000232;28;20444;-81
2022/03/08 10:26:54;;;;;;;8.30;4.45;;;10.60;64.30;;;;;;5000271;28;20096;-80
2022/03/08 10:29:23;;;;;;;10.63;5.40;;;10.50;63.00;;;;;;5000755;28;20046;-81
2022/03/08 10:31:49;;;;;;;7.25;4.63;;;10.30;92.90;;;;;;5005500;28;20104;-81
2022/03/08 10:34:17;;;;;;;8.80;4.72;;;10.10;90.40;;;;;;4988985;28;20042;-81
2022/03/08 10:37:02;;;;;;;6.18;4.63;;;9.90;92.60;;;;;;5020787;28;20057;-81
2022/03/08 10:39:28;;;;;;;8.65;5.40;;;9.70;65.40;;;;;;5004792;28;20056;-79
2022/03/08 10:41:57;;;;;;;7.75;4.65;;;9.60;92.90;;;;;;5022094;28;20046;-80
2022/03/08 10:44:34;;;;;;;8.38;4.55;;;9.50;80.00;;;;;;5022998;28;20049;-79
2022/03/08 10:47:14;;;;;;;7.85;4.43;;;9.50;80.90;;;;;;5023673;28;20049;-80
2022/03/08 10:49:53;;;;;;;7.00;4.10;;;9.50;61.00;;;;;;5011162;28;20392;-80
2022/03/08 10:55:39;;;;;;;8.32;4.60;;;9.50;61.20;;;;;;5159420;23;20057;-80
2022/03/08 10:58:55;;;;;;;8.38;4.57;;;9.50;60.70;;;;;;5010570;28;20053;-79
2022/03/08 11:17:33;;;;;;;12.32;5.07;;;9.80;79.60;;;;;;1124131;26;20396;-80
2022/03/08 11:20:01;;;;;;;9.40;4.05;;;9.80;63.00;;;;;;5023114;28;20053;-80
2022/03/08 11:22:28;;;;;;;6.07;4.30;;;9.80;74.80;;;;;;5064071;28;20052;-80
2022/03/08 11:24:54;;;;;;;23.10;5.50;;;9.80;77.30;;;;;;5044846;28;20511;-81
2022/03/08 11:27:20;;;;;;;7.57;4.50;;;9.70;71.50;;;;;;5038580;28;20080;-82
2022/03/08 11:29:46;;;;;;;8.35;4.72;;;9.70;74.90;;;;;;5038571;28;20447;-83
2022/03/08 11:32:17;;;;;;;10.15;5.03;;;9.70;73.00;;;;;;5021087;28;20044;-83
2022/03/08 11:34:55;;;;;;;11.68;4.70;;;9.80;70.30;;;;;;5036368;28;20522;-83
2022/03/08 11:37:23;;;;;;;5.95;3.95;;;9.90;60.40;;;;;;5020524;28;20189;-83
2022/03/08 11:40:12;;;;;;;6.53;4.30;;;9.90;69.90;;;;;;5036995;28;20048;-82
2022/03/08 11:42:44;;;;;;;5.82;3.85;;;10.00;54.70;;;;;;5033692;28;20049;-82
2022/03/08 11:45:16;;;;;;;8.93;4.03;;;10.10;67.60;;;;;;5035788;28;20037;-82
2022/03/08 11:47:52;;;;;;;7.22;3.83;;;10.10;59.10;;;;;;5034331;28;20041;-81
2022/03/08 11:50:24;;;;;;;6.40;3.80;;;10.10;63.40;;;;;;5033558;28;20037;-81
2022/03/08 11:52:52;;;;;;;8.25;3.97;;;10.10;56.60;;;;;;5033700;28;20519;-81
2022/03/08 11:55:25;;;;;;;4.88;3.13;;;10.10;61.50;;;;;;5033353;28;20049;-82
2022/03/08 11:57:55;;;;;;;7.85;3.83;;;10.20;57.70;;;;;;5034553;28;20132;-81
2022/03/08 12:00:42;;;;;;;5.47;3.08;;;10.10;57.30;;;;;;5037761;28;20037;-82
2022/03/08 12:03:30;;;;;;;5.25;3.53;;;10.20;55.30;;;;;;5037283;28;20091;-81
2022/03/08 12:06:19;;;;;;;6.10;3.60;;;10.20;59.20;;;;;;5023412;28;20553;-81
2022/03/08 12:08:46;;;;;;;6.97;3.67;;;10.20;54.80;;;;;;5021940;28;20068;-81
2022/03/08 12:11:31;;;;;;;4.85;3.13;;;10.20;59.20;;;;;;5037855;28;20045;-81
2022/03/08 12:14:04;;;;;;;5.68;3.15;;;10.20;51.10;;;;;;5038417;28;20128;-81
2022/03/08 12:16:30;;;;;;;4.32;2.70;;;10.30;54.30;;;;;;5038448;28;20046;-81
2022/03/08 12:18:58;;;;;;;7.63;3.45;;;10.40;56.80;;;;;;5037324;28;20083;-82
2022/03/08 12:21:24;;;;;;;7.07;3.30;;;10.40;54.00;;;;;;5037028;28;20041;-82
2022/03/08 12:24:02;;;;;;;8.52;3.72;;;10.40;55.80;;;;;;5034923;28;20045;-82
2022/03/08 12:26:33;;;;;;;7.45;3.58;;;10.40;53.30;;;;;;5017657;28;20041;-82
2022/03/08 12:29:22;;;;;;;6.78;3.45;;;10.50;56.00;;;;;;5017886;28;20484;-82
2022/03/08 12:31:57;;;;;;;4.13;2.88;;;10.40;56.80;;;;;;5032527;28;20056;-82
2022/03/08 12:34:39;;;;;;;7.40;3.17;;;10.50;54.50;;;;;;5034038;28;20523;-81
2022/03/08 12:37:12;;;;;;;6.68;2.80;;;10.50;50.80;;;;;;5033665;28;20421;-82
2022/03/08 12:39:46;;;;;;;3.95;2.90;;;10.60;55.90;;;;;;5035027;28;20045;-82
2022/03/08 12:42:41;;;;;;;5.70;2.90;;;10.50;54.70;;;;;;5035753;28;20046;-82
2022/03/08 12:45:16;;;;;;;7.03;2.80;;;10.60;51.00;;;;;;5035026;28;20049;-82
2022/03/08 12:47:49;;;;;;;4.72;2.58;;;10.70;53.90;;;;;;5035511;28;20041;-82
2022/03/08 12:50:16;;;;;;;7.55;2.70;;;10.70;53.90;;;;;;5034508;28;20451;-80
2022/03/08 12:52:47;;;;;;;3.65;2.63;;;10.70;52.70;;;;;;5043386;28;20049;-80
2022/03/08 12:55:25;;;;;;;5.30;2.40;;;10.70;51.80;;;;;;5037468;28;20057;-80
2022/03/08 12:57:52;;;;;;;6.00;2.78;;;10.70;51.30;;;;;;5038214;28;20049;-81
2022/03/08 13:00:32;;;;;;;5.85;3.03;;;10.70;51.20;;;;;;5036445;28;20127;-81
2022/03/08 13:02:58;;;;;;;5.22;2.63;;;10.70;51.10;;;;;;5036683;28;20057;-79
2022/03/08 13:05:30;;;;;;;4.20;2.42;;;10.80;51.90;;;;;;5037469;28;20046;-81
2022/03/08 13:07:56;;;;;;;;;;;10.80;50.90;;;;;;5032315;28;20041;-81
2022/03/08 13:10:23;;;;;;;5.03;2.33;;;10.90;47.70;;;;;;5031830;28;19917;-82
2022/03/08 13:13:02;;;;;;;2.80;2.08;;;10.90;49.80;;;;;;5031927;28;20148;-81
2022/03/08 13:15:29;;;;;;;9.55;2.72;;;10.80;50.50;;;;;;5031992;28;20056;-81
2022/03/08 13:17:57;;;;;;;4.25;2.50;;;10.80;50.90;;;;;;5039896;28;20042;-74
2022/03/08 13:20:39;;;;;;;4.55;2.55;;;10.80;51.70;;;;;;5027959;28;20468;-78
2022/03/08 13:23:10;;;;;;;5.35;2.63;;;10.80;51.30;;;;;;5007202;28;20045;-77
2022/03/08 13:25:42;;;;;;;6.80;2.35;;;10.80;50.80;;;;;;5012743;28;20412;-77
2022/03/08 13:28:12;;;;;;;7.28;3.45;;;10.80;51.50;;;;;;5012985;28;20069;-78
2022/03/08 13:30:44;;;;;;;4.55;2.70;;;10.80;51.50;;;;;;5013579;28;20086;-78
2022/03/08 13:33:22;;;;;;;11.60;2.80;;;10.80;51.90;;;;;;5029863;28;20049;-77
2022/03/08 13:35:48;;;;;;;4.75;2.58;;;10.80;51.70;;;;;;5030802;28;20041;-78
2022/03/08 13:38:53;;;;;;;4.32;2.58;;;10.80;51.10;;;;;;5029848;28;20567;-78
2022/03/08 13:41:27;;;;;;;5.85;2.75;;;10.80;49.00;;;;;;5029069;28;20088;-77
2022/03/08 13:43:57;;;;;;;4.45;2.58;;;10.70;50.60;;;;;;5029639;28;20087;-77
2022/03/08 13:46:23;;;;;;;4.90;2.63;;;10.70;49.50;;;;;;5015788;28;20034;-79
2022/03/08 13:49:07;;;;;;;6.88;2.67;;;10.70;49.80;;;;;;5031822;28;20529;-78
2022/03/08 13:51:36;;;;;;;5.28;2.45;;;10.80;49.60;;;;;;5031801;28;20519;-78